sensor_id;sensor_type;location;lat;lon;timestamp;pressure;altitude;pressure_sealevel;temperature;humidity
36248;BME280;22287;50.824;5.644;2023-03-21T00:00:59;100947.34;;;11.16;69.46
36248;BME280;22287;50.824;5.644;2023-03-21T00:03:26;100939.47;;;10.81;70.32
36248;BME280;22287;50.824;5.644;2023-03-21T00:05:54;100927.22;;;11.09;70.03
36248;BME280;22287;50.824;5.644;2023-03-21T00:08:23;100920.06;;;11.40;68.77
36248;BME280;22287;50.824;5.644;2023-03-21T00:10:59;100928.66;;;11.13;70.42
36248;BME280;22287;50.824;5.644;2023-03-21T00:13:28;100929.78;;;10.79;71.70
36248;BME280;22287;50.824;5.644;2023-03-21T00:16:06;100915.94;;;11.25;69.74
36248;BME280;22287;50.824;5.644;2023-03-21T00:18:39;100916.69;;;10.95;71.49
36248;BME280;22287;50.824;5.644;2023-03-21T00:21:11;100918.66;;;10.93;71.23
36248;BME280;22287;50.824;5.644;2023-03-21T00:23:59;100904.34;;;11.02;70.78
36248;BME280;22287;50.824;5.644;2023-03-21T00:26:26;100904.69;;;10.88;71.37
36248;BME280;22287;50.824;5.644;2023-03-21T00:28:53;100907.25;;;11.42;69.64
36248;BME280;22287;50.824;5.644;2023-03-21T00:31:20;100901.13;;;11.60;69.01
36248;BME280;22287;50.824;5.644;2023-03-21T00:33:48;100895.47;;;11.11;70.32
36248;BME280;22287;50.824;5.644;2023-03-21T00:36:15;100893.25;;;11.37;69.76
36248;BME280;22287;50.824;5.644;2023-03-21T00:38:42;100889.19;;;11.42;69.40
36248;BME280;22287;50.824;5.644;2023-03-21T00:41:11;100892.13;;;11.39;69.41
36248;BME280;22287;50.824;5.644;2023-03-21T00:44:00;100888.78;;;11.47;69.07
36248;BME280;22287;50.824;5.644;2023-03-21T00:46:27;100890.16;;;11.41;69.02
36248;BME280;22287;50.824;5.644;2023-03-21T00:49:08;100888.47;;;11.40;69.05
36248;BME280;22287;50.824;5.644;2023-03-21T00:51:34;100885.31;;;10.60;72.26
36248;BME280;22287;50.824;5.644;2023-03-21T00:54:03;100874.16;;;10.65;72.40
36248;BME280;22287;50.824;5.644;2023-03-21T00:56:31;100868.31;;;11.12;70.43
36248;BME280;22287;50.824;5.644;2023-03-21T00:58:58;100870.16;;;11.33;69.82
36248;BME280;22287;50.824;5.644;2023-03-21T01:01:25;100870.75;;;11.15;70.10
36248;BME280;22287;50.824;5.644;2023-03-21T01:03:58;100869.91;;;11.36;69.47
36248;BME280;22287;50.824;5.644;2023-03-21T01:06:35;100863.75;;;11.34;69.37
36248;BME280;22287;50.824;5.644;2023-03-21T01:09:20;100864.06;;;11.61;68.01
36248;BME280;22287;50.824;5.644;2023-03-21T01:11:48;100853.66;;;11.56;68.36
36248;BME280;22287;50.824;5.644;2023-03-21T01:14:17;100858.19;;;11.35;69.03
36248;BME280;22287;50.824;5.644;2023-03-21T01:16:52;100847.38;;;11.35;68.96
36248;BME280;22287;50.824;5.644;2023-03-21T01:19:22;100845.63;;;11.45;68.70
36248;BME280;22287;50.824;5.644;2023-03-21T01:22:10;100839.44;;;11.02;69.90
36248;BME280;22287;50.824;5.644;2023-03-21T01:24:37;100835.50;;;11.06;70.42
36248;BME280;22287;50.824;5.644;2023-03-21T01:27:17;100846.84;;;11.00;70.74
36248;BME280;22287;50.824;5.644;2023-03-21T01:29:46;100831.13;;;10.94;70.60
36248;BME280;22287;50.824;5.644;2023-03-21T01:32:13;100826.53;;;10.85;70.68
36248;BME280;22287;50.824;5.644;2023-03-21T01:34:40;100817.50;;;10.95;70.40
36248;BME280;22287;50.824;5.644;2023-03-21T01:37:07;100817.50;;;10.95;70.76
36248;BME280;22287;50.824;5.644;2023-03-21T01:39:41;100814.13;;;11.03;69.93
36248;BME280;22287;50.824;5.644;2023-03-21T01:42:12;100818.53;;;11.25;69.27
36248;BME280;22287;50.824;5.644;2023-03-21T01:47:32;100810.50;;;11.13;68.94
36248;BME280;22287;50.824;5.644;2023-03-21T01:50:08;100805.44;;;11.20;68.95
36248;BME280;22287;50.824;5.644;2023-03-21T01:52:44;100804.97;;;11.15;69.13
36248;BME280;22287;50.824;5.644;2023-03-21T01:55:22;100801.47;;;11.24;69.02
36248;BME280;22287;50.824;5.644;2023-03-21T01:58:23;100803.09;;;11.57;67.94
36248;BME280;22287;50.824;5.644;2023-03-21T02:01:08;100798.94;;;11.53;67.46
36248;BME280;22287;50.824;5.644;2023-03-21T02:03:43;100795.09;;;11.55;67.23
36248;BME280;22287;50.824;5.644;2023-03-21T02:06:49;100786.78;;;11.47;67.77
36248;BME280;22287;50.824;5.644;2023-03-21T02:09:37;100784.84;;;11.08;69.15
36248;BME280;22287;50.824;5.644;2023-03-21T02:12:12;100785.22;;;11.24;68.40
36248;BME280;22287;50.824;5.644;2023-03-21T02:14:44;100779.81;;;11.24;68.42
36248;BME280;22287;50.824;5.644;2023-03-21T02:17:36;100782.66;;;11.23;68.58
36248;BME280;22287;50.824;5.644;2023-03-21T02:20:46;100778.72;;;11.06;69.92
36248;BME280;22287;50.824;5.644;2023-03-21T02:29:18;100761.78;;;11.04;70.07
36248;BME280;22287;50.824;5.644;2023-03-21T02:40:22;100745.50;;;11.25;69.42
36248;BME280;22287;50.824;5.644;2023-03-21T02:43:23;100748.34;;;11.23;69.64
36248;BME280;22287;50.824;5.644;2023-03-21T02:46:01;100742.34;;;11.19;69.62
36248;BME280;22287;50.824;5.644;2023-03-21T02:48:37;100745.53;;;11.04;69.71
36248;BME280;22287;50.824;5.644;2023-03-21T02:51:20;100745.84;;;11.31;68.76
36248;BME280;22287;50.824;5.644;2023-03-21T02:53:52;100734.91;;;11.12;69.86
36248;BME280;22287;50.824;5.644;2023-03-21T02:56:43;100744.28;;;11.08;70.34
36248;BME280;22287;50.824;5.644;2023-03-21T02:59:13;100741.19;;;11.43;68.64
36248;BME280;22287;50.824;5.644;2023-03-21T03:01:42;100736.94;;;11.50;68.35
36248;BME280;22287;50.824;5.644;2023-03-21T03:04:24;100735.88;;;11.32;68.84
36248;BME280;22287;50.824;5.644;2023-03-21T03:12:53;100734.22;;;11.40;68.62
36248;BME280;22287;50.824;5.644;2023-03-21T03:15:37;100732.25;;;11.52;68.57
36248;BME280;22287;50.824;5.644;2023-03-21T03:18:23;100736.22;;;11.17;69.73
36248;BME280;22287;50.824;5.644;2023-03-21T03:23:43;100735.81;;;11.52;69.02
36248;BME280;22287;50.824;5.644;2023-03-21T03:26:21;100735.09;;;11.50;68.61
36248;BME280;22287;50.824;5.644;2023-03-21T03:28:59;100723.25;;;11.42;68.82
36248;BME280;22287;50.824;5.644;2023-03-21T03:31:35;100731.25;;;11.83;67.32
36248;BME280;22287;50.824;5.644;2023-03-21T03:34:14;100726.88;;;11.61;68.01
36248;BME280;22287;50.824;5.644;2023-03-21T03:36:45;100728.97;;;11.18;69.22
36248;BME280;22287;50.824;5.644;2023-03-21T03:39:17;100733.03;;;11.33;68.76
36248;BME280;22287;50.824;5.644;2023-03-21T03:41:59;100717.88;;;11.21;69.55
36248;BME280;22287;50.824;5.644;2023-03-21T03:44:54;100719.94;;;11.38;69.72
36248;BME280;22287;50.824;5.644;2023-03-21T03:50:16;100723.00;;;11.54;68.63
36248;BME280;22287;50.824;5.644;2023-03-21T03:52:49;100717.97;;;11.40;69.46
36248;BME280;22287;50.824;5.644;2023-03-21T03:55:27;100709.44;;;11.45;69.39
36248;BME280;22287;50.824;5.644;2023-03-21T03:58:07;100710.06;;;11.58;68.96
36248;BME280;22287;50.824;5.644;2023-03-21T04:00:48;100711.91;;;11.27;70.05
36248;BME280;22287;50.824;5.644;2023-03-21T04:03:15;100707.16;;;11.10;70.67
36248;BME280;22287;50.824;5.644;2023-03-21T04:05:42;100702.94;;;11.57;69.03
36248;BME280;22287;50.824;5.644;2023-03-21T04:08:14;100715.19;;;11.51;69.44
36248;BME280;22287;50.824;5.644;2023-03-21T04:10:45;100709.63;;;11.02;70.94
36248;BME280;22287;50.824;5.644;2023-03-21T04:13:12;100703.84;;;11.06;70.79
36248;BME280;22287;50.824;5.644;2023-03-21T04:15:59;100707.34;;;11.18;70.40
36248;BME280;22287;50.824;5.644;2023-03-21T04:18:26;100710.94;;;11.28;70.05
36248;BME280;22287;50.824;5.644;2023-03-21T04:20:53;100709.03;;;11.19;70.36
36248;BME280;22287;50.824;5.644;2023-03-21T04:23:20;100704.75;;;11.16;70.83
36248;BME280;22287;50.824;5.644;2023-03-21T04:25:48;100702.91;;;10.96;71.00
36248;BME280;22287;50.824;5.644;2023-03-21T04:28:31;100702.03;;;11.16;70.69
36248;BME280;22287;50.824;5.644;2023-03-21T04:31:05;100696.19;;;11.11;71.47
36248;BME280;22287;50.824;5.644;2023-03-21T04:33:49;100695.34;;;10.90;71.75
36248;BME280;22287;50.824;5.644;2023-03-21T04:36:16;100691.06;;;10.88;71.82
36248;BME280;22287;50.824;5.644;2023-03-21T04:38:56;100699.31;;;10.66;72.50
36248;BME280;22287;50.824;5.644;2023-03-21T04:41:29;100692.50;;;10.92;71.88
36248;BME280;22287;50.824;5.644;2023-03-21T04:43:56;100701.28;;;10.84;72.21
36248;BME280;22287;50.824;5.644;2023-03-21T04:46:23;100704.91;;;10.32;73.28
36248;BME280;22287;50.824;5.644;2023-03-21T04:48:50;100704.19;;;10.51;73.13
36248;BME280;22287;50.824;5.644;2023-03-21T04:51:18;100699.31;;;10.45;73.31
36248;BME280;22287;50.824;5.644;2023-03-21T04:53:44;100704.22;;;11.02;71.45
36248;BME280;22287;50.824;5.644;2023-03-21T04:56:15;100712.69;;;10.46;73.54
36248;BME280;22287;50.824;5.644;2023-03-21T04:58:44;100723.09;;;10.51;73.64
36248;BME280;22287;50.824;5.644;2023-03-21T05:01:10;100720.25;;;10.52;74.15
36248;BME280;22287;50.824;5.644;2023-03-21T05:03:40;100722.91;;;10.43;75.39
36248;BME280;22287;50.824;5.644;2023-03-21T05:06:08;100728.66;;;9.95;78.25
36248;BME280;22287;50.824;5.644;2023-03-21T05:08:37;100728.66;;;10.38;76.99
36248;BME280;22287;50.824;5.644;2023-03-21T05:11:04;100734.31;;;9.92;78.78
36248;BME280;22287;50.824;5.644;2023-03-21T05:13:31;100734.66;;;10.21;78.11
36248;BME280;22287;50.824;5.644;2023-03-21T05:15:58;100726.53;;;10.10;78.74
36248;BME280;22287;50.824;5.644;2023-03-21T05:18:25;100715.16;;;10.38;78.04
36248;BME280;22287;50.824;5.644;2023-03-21T05:21:02;100718.94;;;10.88;75.50
36248;BME280;22287;50.824;5.644;2023-03-21T05:23:30;100712.03;;;10.95;74.55
36248;BME280;22287;50.824;5.644;2023-03-21T05:26:08;100711.00;;;11.47;72.88
36248;BME280;22287;50.824;5.644;2023-03-21T05:28:50;100705.06;;;11.53;72.58
36248;BME280;22287;50.824;5.644;2023-03-21T05:31:18;100697.91;;;10.92;74.20
36248;BME280;22287;50.824;5.644;2023-03-21T05:33:49;100685.94;;;10.85;75.01
36248;BME280;22287;50.824;5.644;2023-03-21T05:36:17;100695.03;;;10.63;75.69
36248;BME280;22287;50.824;5.644;2023-03-21T05:38:44;100693.59;;;10.80;74.52
36248;BME280;22287;50.824;5.644;2023-03-21T05:41:14;100682.97;;;10.88;74.48
36248;BME280;22287;50.824;5.644;2023-03-21T05:43:43;100685.72;;;10.97;73.90
36248;BME280;22287;50.824;5.644;2023-03-21T05:46:10;100688.72;;;10.74;75.21
36248;BME280;22287;50.824;5.644;2023-03-21T05:48:38;100688.31;;;10.57;75.73
36248;BME280;22287;50.824;5.644;2023-03-21T05:51:17;100681.03;;;10.37;77.23
36248;BME280;22287;50.824;5.644;2023-03-21T05:53:44;100691.59;;;10.40;77.13
36248;BME280;22287;50.824;5.644;2023-03-21T05:56:14;100679.47;;;10.55;76.37
36248;BME280;22287;50.824;5.644;2023-03-21T05:58:58;100676.72;;;10.46;77.34
36248;BME280;22287;50.824;5.644;2023-03-21T06:01:25;100682.63;;;10.60;76.85
36248;BME280;22287;50.824;5.644;2023-03-21T06:04:04;100675.31;;;10.72;76.28
36248;BME280;22287;50.824;5.644;2023-03-21T06:06:32;100676.31;;;10.50;76.95
36248;BME280;22287;50.824;5.644;2023-03-21T06:09:00;100680.94;;;10.59;77.15
36248;BME280;22287;50.824;5.644;2023-03-21T06:11:31;100677.50;;;10.78;76.38
36248;BME280;22287;50.824;5.644;2023-03-21T06:14:19;100681.66;;;10.61;76.77
36248;BME280;22287;50.824;5.644;2023-03-21T06:17:13;100684.16;;;10.53;77.52
36248;BME280;22287;50.824;5.644;2023-03-21T06:19:55;100673.84;;;10.47;77.42
36248;BME280;22287;50.824;5.644;2023-03-21T06:22:37;100686.25;;;10.29;78.46
36248;BME280;22287;50.824;5.644;2023-03-21T06:25:06;100676.16;;;10.73;77.01
36248;BME280;22287;50.824;5.644;2023-03-21T06:27:35;100674.97;;;11.07;75.07
36248;BME280;22287;50.824;5.644;2023-03-21T06:30:05;100676.81;;;10.44;78.75
36248;BME280;22287;50.824;5.644;2023-03-21T06:32:38;100682.69;;;10.29;79.43
36248;BME280;22287;50.824;5.644;2023-03-21T06:35:10;100687.44;;;10.57;78.12
36248;BME280;22287;50.824;5.644;2023-03-21T06:37:37;100683.34;;;10.83;76.47
36248;BME280;22287;50.824;5.644;2023-03-21T06:40:05;100679.81;;;11.13;75.36
36248;BME280;22287;50.824;5.644;2023-03-21T06:42:35;100681.78;;;11.11;74.85
36248;BME280;22287;50.824;5.644;2023-03-21T06:45:08;100679.47;;;10.76;75.84
36248;BME280;22287;50.824;5.644;2023-03-21T06:47:36;100671.75;;;11.23;74.18
36248;BME280;22287;50.824;5.644;2023-03-21T06:50:09;100669.31;;;10.89;75.91
36248;BME280;22287;50.824;5.644;2023-03-21T06:52:40;100668.44;;;10.89;75.54
36248;BME280;22287;50.824;5.644;2023-03-21T06:55:07;100669.56;;;11.07;74.70
36248;BME280;22287;50.824;5.644;2023-03-21T06:57:35;100670.38;;;11.07;74.64
36248;BME280;22287;50.824;5.644;2023-03-21T07:00:03;100663.47;;;10.94;75.24
36248;BME280;22287;50.824;5.644;2023-03-21T07:02:31;100668.94;;;11.03;74.51
36248;BME280;22287;50.824;5.644;2023-03-21T07:05:07;100673.09;;;11.07;74.58
36248;BME280;22287;50.824;5.644;2023-03-21T07:07:35;100672.56;;;11.13;73.94
36248;BME280;22287;50.824;5.644;2023-03-21T07:10:03;100668.50;;;10.78;74.95
36248;BME280;22287;50.824;5.644;2023-03-21T07:12:39;100665.28;;;11.04;74.20
36248;BME280;22287;50.824;5.644;2023-03-21T07:15:20;100677.88;;;10.94;74.50
36248;BME280;22287;50.824;5.644;2023-03-21T07:17:48;100677.19;;;11.02;73.95
36248;BME280;22287;50.824;5.644;2023-03-21T07:20:15;100682.28;;;11.56;72.67
36248;BME280;22287;50.824;5.644;2023-03-21T07:22:42;100686.94;;;11.14;73.72
36248;BME280;22287;50.824;5.644;2023-03-21T07:25:09;100684.19;;;11.35;73.32
36248;BME280;22287;50.824;5.644;2023-03-21T07:27:39;100689.97;;;11.60;72.40
36248;BME280;22287;50.824;5.644;2023-03-21T07:30:08;100692.22;;;11.46;73.14
36248;BME280;22287;50.824;5.644;2023-03-21T07:32:35;100694.34;;;11.52;72.76
36248;BME280;22287;50.824;5.644;2023-03-21T07:35:06;100695.06;;;11.84;71.58
36248;BME280;22287;50.824;5.644;2023-03-21T07:37:33;100693.50;;;11.82;72.14
36248;BME280;22287;50.824;5.644;2023-03-21T07:40:02;100689.50;;;11.76;71.94
36248;BME280;22287;50.824;5.644;2023-03-21T07:42:37;100693.06;;;11.86;71.68
36248;BME280;22287;50.824;5.644;2023-03-21T07:45:06;100695.53;;;11.68;72.02
36248;BME280;22287;50.824;5.644;2023-03-21T07:47:33;100699.47;;;11.45;73.36
36248;BME280;22287;50.824;5.644;2023-03-21T07:50:01;100695.69;;;11.27;73.76
36248;BME280;22287;50.824;5.644;2023-03-21T07:52:30;100699.94;;;11.20;74.56
36248;BME280;22287;50.824;5.644;2023-03-21T07:54:57;100706.03;;;10.92;74.95
36248;BME280;22287;50.824;5.644;2023-03-21T07:57:24;100696.44;;;11.08;74.89
36248;BME280;22287;50.824;5.644;2023-03-21T07:59:51;100692.50;;;10.92;75.94
36248;BME280;22287;50.824;5.644;2023-03-21T08:02:18;100696.69;;;10.96;76.12
36248;BME280;22287;50.824;5.644;2023-03-21T08:04:45;100692.34;;;11.44;74.45
36248;BME280;22287;50.824;5.644;2023-03-21T08:07:12;100705.41;;;11.69;73.22
36248;BME280;22287;50.824;5.644;2023-03-21T08:09:39;100701.03;;;11.88;72.37
36248;BME280;22287;50.824;5.644;2023-03-21T08:12:08;100702.34;;;11.53;74.29
36248;BME280;22287;50.824;5.644;2023-03-21T08:14:36;100705.91;;;11.54;73.71
36248;BME280;22287;50.824;5.644;2023-03-21T08:17:03;100703.44;;;11.71;74.04
36248;BME280;22287;50.824;5.644;2023-03-21T08:19:31;100696.66;;;11.56;74.61
36248;BME280;22287;50.824;5.644;2023-03-21T08:21:58;100702.16;;;11.75;73.87
36248;BME280;22287;50.824;5.644;2023-03-21T08:24:26;100694.22;;;11.93;72.45
36248;BME280;22287;50.824;5.644;2023-03-21T08:26:54;100698.25;;;11.68;73.41
36248;BME280;22287;50.824;5.644;2023-03-21T08:29:22;100689.09;;;12.00;72.60
36248;BME280;22287;50.824;5.644;2023-03-21T08:31:50;100681.00;;;12.19;72.05
36248;BME280;22287;50.824;5.644;2023-03-21T08:34:18;100680.13;;;12.18;71.60
36248;BME280;22287;50.824;5.644;2023-03-21T08:36:45;100680.00;;;12.39;71.22
36248;BME280;22287;50.824;5.644;2023-03-21T08:39:12;100677.00;;;12.04;72.34
36248;BME280;22287;50.824;5.644;2023-03-21T08:41:39;100668.00;;;12.13;72.37
36248;BME280;22287;50.824;5.644;2023-03-21T08:44:06;100666.41;;;11.91;72.99
36248;BME280;22287;50.824;5.644;2023-03-21T08:46:33;100670.00;;;11.92;73.11
36248;BME280;22287;50.824;5.644;2023-03-21T08:49:00;100675.25;;;11.93;73.66
36248;BME280;22287;50.824;5.644;2023-03-21T08:51:27;100667.72;;;12.35;71.66
36248;BME280;22287;50.824;5.644;2023-03-21T08:53:54;100661.31;;;12.26;71.93
36248;BME280;22287;50.824;5.644;2023-03-21T08:56:20;100665.16;;;12.24;71.82
36248;BME280;22287;50.824;5.644;2023-03-21T08:59:02;100666.88;;;12.44;70.46
36248;BME280;22287;50.824;5.644;2023-03-21T09:01:29;100659.00;;;12.12;71.33
36248;BME280;22287;50.824;5.644;2023-03-21T09:04:12;100651.03;;;12.30;70.87
36248;BME280;22287;50.824;5.644;2023-03-21T09:06:39;100649.63;;;12.35;70.26
36248;BME280;22287;50.824;5.644;2023-03-21T09:09:15;100653.47;;;12.23;70.19
36248;BME280;22287;50.824;5.644;2023-03-21T09:11:42;100655.00;;;11.78;71.80
36248;BME280;22287;50.824;5.644;2023-03-21T09:14:09;100655.19;;;11.96;71.55
36248;BME280;22287;50.824;5.644;2023-03-21T09:16:37;100648.47;;;12.19;69.78
36248;BME280;22287;50.824;5.644;2023-03-21T09:19:04;100641.78;;;12.42;69.30
36248;BME280;22287;50.824;5.644;2023-03-21T09:21:34;100640.09;;;12.31;69.80
36248;BME280;22287;50.824;5.644;2023-03-21T09:24:01;100643.03;;;12.38;69.52
36248;BME280;22287;50.824;5.644;2023-03-21T09:26:28;100641.34;;;12.37;69.70
36248;BME280;22287;50.824;5.644;2023-03-21T09:28:55;100640.06;;;12.51;69.04
36248;BME280;22287;50.824;5.644;2023-03-21T09:31:22;100632.19;;;12.67;68.98
36248;BME280;22287;50.824;5.644;2023-03-21T09:33:51;100635.78;;;12.48;69.38
36248;BME280;22287;50.824;5.644;2023-03-21T09:36:19;100637.47;;;12.59;69.07
36248;BME280;22287;50.824;5.644;2023-03-21T09:38:50;100630.41;;;12.85;67.99
36248;BME280;22287;50.824;5.644;2023-03-21T09:41:36;100628.38;;;12.21;69.19
36248;BME280;22287;50.824;5.644;2023-03-21T09:49:18;100614.06;;;12.67;68.32
36248;BME280;22287;50.824;5.644;2023-03-21T09:51:48;100606.50;;;12.52;69.24
36248;BME280;22287;50.824;5.644;2023-03-21T09:54:22;100605.38;;;13.01;67.60
36248;BME280;22287;50.824;5.644;2023-03-21T09:59:38;100605.75;;;12.78;67.88
36248;BME280;22287;50.824;5.644;2023-03-21T10:02:20;100602.50;;;13.12;67.58
36248;BME280;22287;50.824;5.644;2023-03-21T10:05:02;100598.13;;;12.91;67.55
36248;BME280;22287;50.824;5.644;2023-03-21T10:07:39;100588.63;;;12.68;67.98
36248;BME280;22287;50.824;5.644;2023-03-21T10:10:16;100582.16;;;12.88;67.40
36248;BME280;22287;50.824;5.644;2023-03-21T10:12:46;100582.47;;;12.76;68.07
36248;BME280;22287;50.824;5.644;2023-03-21T10:15:18;100581.06;;;12.72;68.26
36248;BME280;22287;50.824;5.644;2023-03-21T10:18:21;100568.47;;;12.80;67.65
36248;BME280;22287;50.824;5.644;2023-03-21T10:20:50;100569.56;;;12.97;67.17
36248;BME280;22287;50.824;5.644;2023-03-21T10:23:32;100564.28;;;13.23;66.35
36248;BME280;22287;50.824;5.644;2023-03-21T10:26:13;100570.06;;;13.20;66.78
36248;BME280;22287;50.824;5.644;2023-03-21T10:28:42;100572.84;;;13.01;66.91
36248;BME280;22287;50.824;5.644;2023-03-21T10:31:20;100577.06;;;13.13;65.85
36248;BME280;22287;50.824;5.644;2023-03-21T10:33:53;100578.66;;;13.06;66.68
36248;BME280;22287;50.824;5.644;2023-03-21T10:36:25;100584.47;;;12.74;68.52
36248;BME280;22287;50.824;5.644;2023-03-21T10:39:02;100580.59;;;12.76;68.44
36248;BME280;22287;50.824;5.644;2023-03-21T10:41:31;100585.78;;;13.16;66.58
36248;BME280;22287;50.824;5.644;2023-03-21T10:44:09;100579.34;;;13.17;67.21
36248;BME280;22287;50.824;5.644;2023-03-21T10:46:37;100579.09;;;13.38;66.88
36248;BME280;22287;50.824;5.644;2023-03-21T10:49:06;100584.41;;;13.30;68.58
36248;BME280;22287;50.824;5.644;2023-03-21T10:51:35;100588.41;;;13.26;67.84
36248;BME280;22287;50.824;5.644;2023-03-21T10:54:14;100577.97;;;12.57;71.34
36248;BME280;22287;50.824;5.644;2023-03-21T10:59:35;100588.44;;;12.14;71.39
36248;BME280;22287;50.824;5.644;2023-03-21T11:02:04;100597.72;;;11.92;72.58
36248;BME280;22287;50.824;5.644;2023-03-21T11:04:32;100584.91;;;12.04;72.26
36248;BME280;22287;50.824;5.644;2023-03-21T11:07:04;100564.44;;;12.84;69.46
36248;BME280;22287;50.824;5.644;2023-03-21T11:09:54;100582.63;;;12.09;70.51
36248;BME280;22287;50.824;5.644;2023-03-21T11:14:55;100579.59;;;12.21;71.65
36248;BME280;22287;50.824;5.644;2023-03-21T11:17:29;100581.41;;;12.40;70.64
36248;BME280;22287;50.824;5.644;2023-03-21T11:20:02;100585.44;;;12.26;70.11
36248;BME280;22287;50.824;5.644;2023-03-21T11:22:41;100577.75;;;12.12;69.64
36248;BME280;22287;50.824;5.644;2023-03-21T11:25:20;100571.75;;;12.28;70.32
36248;BME280;22287;50.824;5.644;2023-03-21T11:27:52;100574.31;;;12.39;70.65
36248;BME280;22287;50.824;5.644;2023-03-21T11:30:26;100563.13;;;12.61;68.32
36248;BME280;22287;50.824;5.644;2023-03-21T11:33:00;100564.75;;;12.45;68.98
36248;BME280;22287;50.824;5.644;2023-03-21T11:35:34;100573.91;;;12.34;70.08
36248;BME280;22287;50.824;5.644;2023-03-21T11:38:02;100577.75;;;12.31;69.92
36248;BME280;22287;50.824;5.644;2023-03-21T11:40:31;100580.78;;;12.65;69.78
36248;BME280;22287;50.824;5.644;2023-03-21T11:48:27;100573.16;;;12.88;67.16
36248;BME280;22287;50.824;5.644;2023-03-21T11:54:11;100572.47;;;12.76;67.24
36248;BME280;22287;50.824;5.644;2023-03-21T11:56:52;100558.09;;;13.03;67.51
36248;BME280;22287;50.824;5.644;2023-03-21T11:59:24;100546.09;;;12.78;67.02
36248;BME280;22287;50.824;5.644;2023-03-21T12:05:07;100546.09;;;12.78;67.52
36248;BME280;22287;50.824;5.644;2023-03-21T12:11:25;100537.22;;;13.04;67.25
36248;BME280;22287;50.824;5.644;2023-03-21T12:16:42;100521.81;;;13.14;66.46
36248;BME280;22287;50.824;5.644;2023-03-21T12:25:14;100517.03;;;13.78;64.68
36248;BME280;22287;50.824;5.644;2023-03-21T12:28:09;100507.72;;;13.81;64.12
36248;BME280;22287;50.824;5.644;2023-03-21T12:42:12;100487.22;;;14.30;62.19
36248;BME280;22287;50.824;5.644;2023-03-21T12:45:09;100474.50;;;14.30;62.75
36248;BME280;22287;50.824;5.644;2023-03-21T12:47:56;100480.75;;;14.31;63.28
36248;BME280;22287;50.824;5.644;2023-03-21T12:50:39;100481.44;;;14.50;63.38
36248;BME280;22287;50.824;5.644;2023-03-21T12:56:34;100473.91;;;14.78;60.29
36248;BME280;22287;50.824;5.644;2023-03-21T13:01:52;100475.59;;;14.20;59.20
36248;BME280;22287;50.824;5.644;2023-03-21T13:04:40;100474.25;;;14.41;60.63
36248;BME280;22287;50.824;5.644;2023-03-21T13:07:14;100483.53;;;14.64;59.18
36248;BME280;22287;50.824;5.644;2023-03-21T13:09:43;100475.44;;;15.22;60.20
36248;BME280;22287;50.824;5.644;2023-03-21T13:15:04;100468.63;;;15.18;58.90
36248;BME280;22287;50.824;5.644;2023-03-21T13:17:44;100481.94;;;15.29;57.16
36248;BME280;22287;50.824;5.644;2023-03-21T13:20:31;100472.94;;;14.87;57.58
36248;BME280;22287;50.824;5.644;2023-03-21T13:23:17;100470.81;;;14.39;58.70
36248;BME280;22287;50.824;5.644;2023-03-21T13:25:47;100488.53;;;14.26;57.67
36248;BME280;22287;50.824;5.644;2023-03-21T13:28:40;100470.53;;;14.84;57.52
36248;BME280;22287;50.824;5.644;2023-03-21T13:33:45;100475.97;;;14.50;58.48
36248;BME280;22287;50.824;5.644;2023-03-21T13:36:17;100474.59;;;14.21;59.35
36248;BME280;22287;50.824;5.644;2023-03-21T13:38:49;100470.06;;;14.29;60.37
36248;BME280;22287;50.824;5.644;2023-03-21T13:41:37;100473.53;;;14.39;59.64
36248;BME280;22287;50.824;5.644;2023-03-21T13:44:21;100464.38;;;14.40;59.48
36248;BME280;22287;50.824;5.644;2023-03-21T13:47:01;100456.56;;;14.20;59.30
36248;BME280;22287;50.824;5.644;2023-03-21T13:49:31;100452.53;;;14.49;59.73
36248;BME280;22287;50.824;5.644;2023-03-21T13:57:05;100439.59;;;14.77;59.14
36248;BME280;22287;50.824;5.644;2023-03-21T13:59:41;100441.69;;;14.91;58.11
36248;BME280;22287;50.824;5.644;2023-03-21T14:05:19;100434.25;;;15.25;56.95
36248;BME280;22287;50.824;5.644;2023-03-21T14:07:48;100424.25;;;15.34;57.35
36248;BME280;22287;50.824;5.644;2023-03-21T14:10:22;100427.53;;;14.88;57.57
36248;BME280;22287;50.824;5.644;2023-03-21T14:12:51;100420.06;;;14.90;58.79
36248;BME280;22287;50.824;5.644;2023-03-21T14:15:22;100404.22;;;14.77;59.00
36248;BME280;22287;50.824;5.644;2023-03-21T14:20:27;100407.97;;;14.84;58.64
36248;BME280;22287;50.824;5.644;2023-03-21T14:22:54;100401.78;;;15.32;58.14
36248;BME280;22287;50.824;5.644;2023-03-21T14:25:24;100402.34;;;15.60;56.81
36248;BME280;22287;50.824;5.644;2023-03-21T14:28:13;100397.56;;;15.78;56.01
36248;BME280;22287;50.824;5.644;2023-03-21T14:30:41;100389.91;;;15.73;57.02
36248;BME280;22287;50.824;5.644;2023-03-21T14:33:41;100387.69;;;15.85;56.94
36248;BME280;22287;50.824;5.644;2023-03-21T14:36:30;100385.47;;;15.56;55.75
36248;BME280;22287;50.824;5.644;2023-03-21T14:39:25;100386.25;;;16.05;54.67
36248;BME280;22287;50.824;5.644;2023-03-21T14:41:56;100381.38;;;15.84;56.53
36248;BME280;22287;50.824;5.644;2023-03-21T14:44:24;100388.53;;;15.53;55.15
36248;BME280;22287;50.824;5.644;2023-03-21T14:46:53;100376.09;;;15.26;56.88
36248;BME280;22287;50.824;5.644;2023-03-21T14:49:29;100368.25;;;15.23;57.82
36248;BME280;22287;50.824;5.644;2023-03-21T14:52:00;100371.34;;;15.85;56.40
36248;BME280;22287;50.824;5.644;2023-03-21T14:54:29;100366.50;;;16.11;56.10
36248;BME280;22287;50.824;5.644;2023-03-21T14:57:02;100378.63;;;15.93;55.29
36248;BME280;22287;50.824;5.644;2023-03-21T14:59:35;100364.13;;;16.00;56.79
36248;BME280;22287;50.824;5.644;2023-03-21T15:02:17;100362.28;;;15.93;55.46